Time;durP1;ratioP1;P1;durP2;ratioP2;P2;SDS_P1;SDS_P2;PMS_P1;PMS_P2;Temp;Humidity;BMP_temperature;BMP_pressure;BME280_temperature;BME280_humidity;BME280_pressure;Samples;Min_cycle;Max_cycle;Signal;HPM_P1;HPM_P2
2022/07/04 00:00:06;;;;;;;10.10;5.03;;;16.40;99.90;;;;;;5119964;28;20081;-69
2022/07/04 00:02:32;;;;;;;8.65;5.25;;;16.40;99.90;;;;;;5123770;28;20118;-69
2022/07/04 00:04:57;;;;;;;8.68;5.03;;;16.40;99.90;;;;;;5120711;28;20082;-69
2022/07/04 00:07:23;;;;;;;8.95;4.93;;;16.40;99.90;;;;;;5120856;28;20064;-69
2022/07/04 00:09:49;;;;;;;6.32;4.68;;;16.30;99.90;;;;;;5120244;27;20035;-69
2022/07/04 00:12:14;;;;;;;7.82;5.75;;;16.30;99.90;;;;;;5120152;28;20027;-69
2022/07/04 00:14:40;;;;;;;6.13;4.85;;;16.30;99.90;;;;;;5120507;28;20055;-69
2022/07/04 00:17:06;;;;;;;8.10;4.78;;;16.10;99.90;;;;;;5119011;28;20044;-69
2022/07/04 00:19:32;;;;;;;6.05;5.45;;;16.10;99.90;;;;;;5119183;28;20118;-69
2022/07/04 00:21:57;;;;;;;5.93;5.05;;;16.10;99.90;;;;;;5119640;28;20043;-69
2022/07/04 00:24:23;;;;;;;7.07;5.65;;;16.10;99.90;;;;;;5119584;28;20066;-69
2022/07/04 00:26:48;;;;;;;5.50;4.95;;;16.00;99.90;;;;;;5119711;28;20043;-70
2022/07/04 00:29:14;;;;;;;6.35;4.75;;;16.00;99.90;;;;;;5117960;28;20078;-69
2022/07/04 00:31:40;;;;;;;6.72;5.70;;;16.00;99.90;;;;;;5119717;28;20074;-69
2022/07/04 00:34:06;;;;;;;7.05;5.10;;;16.10;99.90;;;;;;5118774;28;20036;-69
2022/07/04 00:36:31;;;;;;;5.40;4.88;;;16.00;99.90;;;;;;5118580;28;20043;-69
2022/07/04 00:38:57;;;;;;;9.65;5.28;;;16.00;99.90;;;;;;5119450;28;20035;-69
2022/07/04 00:41:23;;;;;;;8.43;5.70;;;16.00;99.90;;;;;;5119537;28;20090;-69
2022/07/04 00:44:09;;;;;;;9.60;4.65;;;16.00;99.90;;;;;;5118844;27;20032;-69
2022/07/04 00:46:34;;;;;;;8.00;5.75;;;15.80;99.90;;;;;;5118948;27;20115;-69
2022/07/04 00:49:03;;;;;;;8.35;5.40;;;15.80;99.90;;;;;;5118976;28;20074;-69
2022/07/04 00:51:28;;;;;;;8.25;5.90;;;15.80;99.90;;;;;;5118503;28;20119;-68
2022/07/04 00:53:54;;;;;;;5.80;5.30;;;15.80;99.90;;;;;;5117115;28;20075;-68
2022/07/04 00:56:21;;;;;;;8.18;5.72;;;15.80;99.90;;;;;;5118890;28;20085;-68
2022/07/04 00:58:47;;;;;;;9.70;4.88;;;15.80;99.90;;;;;;5118795;28;20043;-69
2022/07/04 01:01:14;;;;;;;11.68;5.72;;;15.80;99.90;;;;;;5117754;28;20044;-69
2022/07/04 01:03:39;;;;;;;9.52;5.65;;;15.80;99.90;;;;;;5118108;27;20035;-69
2022/07/04 01:06:09;;;;;;;9.93;5.43;;;15.70;99.90;;;;;;5119315;28;20035;-69
2022/07/04 01:08:40;;;;;;;6.45;5.70;;;15.70;99.90;;;;;;5118755;27;20035;-69
2022/07/04 01:11:06;;;;;;;8.38;5.95;;;15.70;99.90;;;;;;5121373;28;20103;-69
2022/07/04 01:13:32;;;;;;;12.95;6.20;;;15.60;99.90;;;;;;5118648;28;20044;-69
2022/07/04 01:15:58;;;;;;;7.88;5.60;;;15.70;99.90;;;;;;5118645;28;20700;-69
2022/07/04 01:18:24;;;;;;;7.47;5.63;;;15.70;99.90;;;;;;5117666;28;20039;-69
2022/07/04 01:20:50;;;;;;;9.90;6.45;;;15.60;99.90;;;;;;5117482;28;20377;-69
2022/07/04 01:23:16;;;;;;;8.35;5.57;;;15.70;99.90;;;;;;5118289;28;20032;-69
2022/07/04 01:25:42;;;;;;;7.72;6.07;;;15.60;99.90;;;;;;5116709;28;20410;-69
2022/07/04 01:28:08;;;;;;;7.25;6.20;;;15.60;99.90;;;;;;5118403;28;20042;-69
2022/07/04 01:30:35;;;;;;;10.20;6.47;;;15.60;99.90;;;;;;5099965;28;20054;-69
2022/07/04 01:33:00;;;;;;;11.15;6.28;;;15.50;99.90;;;;;;5116570;28;20032;-70
2022/07/04 01:35:26;;;;;;;9.20;5.68;;;15.50;99.90;;;;;;5117393;28;20073;-69
2022/07/04 01:37:52;;;;;;;8.35;6.38;;;15.50;99.90;;;;;;5117182;28;20038;-69
2022/07/04 01:40:19;;;;;;;7.78;6.28;;;15.50;99.90;;;;;;5117986;28;20081;-69
2022/07/04 01:42:44;;;;;;;6.90;6.20;;;15.50;99.90;;;;;;5117979;28;20084;-69
2022/07/04 01:45:10;;;;;;;10.25;6.68;;;15.50;99.90;;;;;;5118067;28;20039;-69
2022/07/04 01:47:37;;;;;;;8.07;6.40;;;15.40;99.90;;;;;;5117613;28;20042;-69
2022/07/04 01:50:05;;;;;;;9.30;6.32;;;15.50;99.90;;;;;;5116261;28;20067;-69
2022/07/04 01:52:31;;;;;;;11.05;6.60;;;15.40;99.90;;;;;;5116119;28;20114;-69
2022/07/04 01:54:57;;;;;;;10.95;6.78;;;15.40;99.90;;;;;;5117540;28;20431;-69
2022/07/04 01:57:22;;;;;;;9.15;6.13;;;15.40;99.90;;;;;;5115859;28;20050;-69
2022/07/04 02:02:32;;;;;;;6.63;5.78;;;15.30;99.90;;;;;;5117312;28;20043;-69
2022/07/04 02:04:59;;;;;;;7.00;5.47;;;15.20;99.90;;;;;;5116267;28;20459;-69
2022/07/04 02:07:24;;;;;;;7.50;5.60;;;15.20;99.90;;;;;;5099371;28;20051;-69
2022/07/04 02:09:50;;;;;;;7.72;5.38;;;15.00;99.90;;;;;;5116098;28;20122;-69
2022/07/04 02:15:00;;;;;;;5.35;4.60;;;14.90;99.90;;;;;;5117385;28;20472;-69
2022/07/04 02:17:26;;;;;;;5.88;4.00;;;14.80;99.90;;;;;;5117761;28;20043;-69
2022/07/04 02:19:51;;;;;;;4.82;4.13;;;14.80;99.90;;;;;;5121002;28;20403;-69
2022/07/04 02:22:17;;;;;;;5.93;3.60;;;14.70;99.90;;;;;;5118637;28;20047;-69
2022/07/04 02:24:43;;;;;;;4.05;3.70;;;14.70;99.90;;;;;;5117216;28;20039;-70
2022/07/04 02:27:09;;;;;;;5.70;4.63;;;14.70;99.90;;;;;;5116677;28;20036;-69
2022/07/04 02:29:35;;;;;;;6.13;4.57;;;14.80;99.90;;;;;;5117462;28;20085;-69
2022/07/04 02:32:01;;;;;;;8.52;4.38;;;14.70;99.90;;;;;;5116606;28;20496;-69
2022/07/04 02:34:27;;;;;;;6.95;5.07;;;14.60;99.90;;;;;;5117244;28;20066;-69
2022/07/04 02:36:52;;;;;;;5.32;4.82;;;14.50;99.90;;;;;;5117119;28;20434;-69
2022/07/04 02:39:18;;;;;;;6.22;5.20;;;14.60;99.90;;;;;;5115519;28;20047;-69
2022/07/04 02:41:44;;;;;;;5.60;4.70;;;14.60;99.90;;;;;;5117040;28;20047;-69
2022/07/04 02:44:10;;;;;;;9.50;6.05;;;14.50;99.90;;;;;;5117073;28;20035;-69
2022/07/04 02:46:36;;;;;;;8.70;6.47;;;14.60;99.90;;;;;;5117303;28;20035;-69
2022/07/04 02:49:02;;;;;;;13.18;6.75;;;14.60;99.90;;;;;;5117155;28;20031;-69
2022/07/04 02:51:28;;;;;;;8.93;6.70;;;14.70;99.90;;;;;;5117134;28;20046;-69
2022/07/04 02:53:54;;;;;;;10.68;7.45;;;14.70;99.90;;;;;;5115503;28;20043;-69
2022/07/04 02:56:19;;;;;;;10.38;6.97;;;14.70;99.90;;;;;;5116701;28;20043;-69
2022/07/04 02:58:45;;;;;;;8.68;7.68;;;14.70;99.90;;;;;;5115434;28;20048;-69
2022/07/04 03:01:12;;;;;;;8.68;7.32;;;14.70;99.90;;;;;;5116999;28;20051;-69
2022/07/04 03:03:41;;;;;;;8.32;7.13;;;14.70;99.90;;;;;;5115767;28;20043;-69
2022/07/04 03:06:08;;;;;;;9.32;7.32;;;14.70;99.90;;;;;;5116005;28;20070;-69
2022/07/04 03:08:34;;;;;;;8.65;7.10;;;14.70;99.90;;;;;;5117417;28;20054;-69
2022/07/04 03:10:59;;;;;;;9.30;6.60;;;14.70;99.90;;;;;;5115304;28;20090;-69
2022/07/04 03:13:26;;;;;;;9.32;7.30;;;14.70;99.90;;;;;;5112225;28;20039;-69
2022/07/04 03:15:52;;;;;;;13.10;7.13;;;14.70;99.90;;;;;;5113522;28;20039;-69
2022/07/04 03:18:18;;;;;;;15.05;6.63;;;14.70;99.90;;;;;;5114099;28;20035;-69
2022/07/04 03:20:43;;;;;;;8.70;6.68;;;14.70;99.90;;;;;;5114954;28;20101;-69
2022/07/04 03:23:09;;;;;;;7.55;6.68;;;14.70;99.90;;;;;;5116084;28;20044;-69
2022/07/04 03:25:35;;;;;;;9.50;6.65;;;14.70;99.90;;;;;;5116319;28;20028;-69
2022/07/04 03:28:00;;;;;;;13.65;6.85;;;14.70;99.90;;;;;;5118552;28;20093;-69
2022/07/04 03:30:26;;;;;;;12.05;7.57;;;14.70;99.90;;;;;;5119981;28;20039;-69
2022/07/04 03:32:52;;;;;;;8.40;6.70;;;14.80;99.90;;;;;;5116656;28;20042;-69
2022/07/04 03:35:18;;;;;;;13.35;6.95;;;14.70;99.90;;;;;;5117374;28;20046;-69
2022/07/04 03:37:44;;;;;;;11.93;7.28;;;14.70;99.90;;;;;;5117407;28;20067;-69
2022/07/04 03:40:10;;;;;;;12.68;7.40;;;14.70;99.90;;;;;;5116797;28;20032;-68
2022/07/04 03:42:36;;;;;;;12.35;7.95;;;14.70;99.90;;;;;;5115026;28;20039;-69
2022/07/04 03:45:02;;;;;;;13.35;7.90;;;14.70;99.90;;;;;;5115753;28;20043;-69
2022/07/04 03:47:27;;;;;;;12.70;8.20;;;14.80;99.90;;;;;;5115948;28;20095;-69
2022/07/04 03:49:53;;;;;;;7.88;7.03;;;14.80;99.90;;;;;;5114995;28;20119;-69
2022/07/04 03:52:19;;;;;;;8.32;6.68;;;14.80;99.90;;;;;;5116322;28;20100;-69
2022/07/04 03:54:44;;;;;;;7.93;7.13;;;14.80;99.90;;;;;;5118966;28;20031;-69
2022/07/04 03:57:10;;;;;;;11.75;7.55;;;14.80;99.90;;;;;;5119321;28;20042;-69
2022/07/04 03:59:35;;;;;;;12.70;7.55;;;14.80;99.90;;;;;;5119928;28;20051;-69
2022/07/04 04:02:01;;;;;;;8.38;6.95;;;14.80;99.90;;;;;;5120045;27;20044;-68
2022/07/04 04:07:10;;;;;;;13.27;7.32;;;14.80;99.90;;;;;;5120064;28;20052;-69
2022/07/04 04:09:36;;;;;;;9.60;7.32;;;14.90;99.90;;;;;;5118594;28;20054;-69
2022/07/04 04:12:02;;;;;;;9.27;8.10;;;15.00;99.90;;;;;;5119856;28;20047;-69
2022/07/04 04:14:27;;;;;;;10.30;8.63;;;15.20;99.90;;;;;;5119416;28;20042;-69
2022/07/04 04:16:53;;;;;;;9.70;7.90;;;15.20;99.90;;;;;;5120028;28;20457;-69
2022/07/04 04:19:19;;;;;;;14.23;8.20;;;15.20;99.90;;;;;;5118428;28;20127;-69
2022/07/04 04:21:45;;;;;;;11.15;8.23;;;15.20;99.90;;;;;;5119710;28;20126;-69
2022/07/04 04:24:10;;;;;;;9.95;7.60;;;15.30;99.90;;;;;;5119808;28;20058;-69
2022/07/04 04:26:36;;;;;;;9.43;7.43;;;15.30;99.90;;;;;;5119052;28;20039;-69
2022/07/04 04:29:02;;;;;;;8.85;7.75;;;15.40;99.90;;;;;;5119447;27;20078;-68
2022/07/04 04:31:28;;;;;;;10.57;7.63;;;15.50;99.90;;;;;;5119865;28;20050;-68
2022/07/04 04:33:53;;;;;;;10.73;8.05;;;15.50;99.90;;;;;;5117552;28;20126;-69
2022/07/04 04:36:19;;;;;;;7.72;6.90;;;15.50;99.90;;;;;;5119649;28;20081;-69
2022/07/04 04:38:44;;;;;;;11.30;7.32;;;15.50;99.90;;;;;;5104251;28;20477;-68
2022/07/04 04:41:10;;;;;;;14.50;7.10;;;15.60;99.90;;;;;;5119338;28;20040;-69
2022/07/04 04:43:36;;;;;;;12.90;7.32;;;15.70;99.90;;;;;;5119015;28;20043;-69
2022/07/04 04:46:02;;;;;;;9.15;7.30;;;15.80;99.90;;;;;;5118567;28;20043;-69
2022/07/04 04:48:28;;;;;;;11.40;7.32;;;15.80;99.90;;;;;;5117617;28;20048;-69
2022/07/04 04:50:53;;;;;;;15.25;8.25;;;15.90;99.90;;;;;;5118072;28;20035;-69
2022/07/04 04:53:22;;;;;;;13.60;8.20;;;16.00;99.90;;;;;;5117900;28;20035;-69
2022/07/04 04:55:47;;;;;;;10.25;7.38;;;16.00;99.90;;;;;;5119332;28;20065;-69
2022/07/04 04:58:13;;;;;;;9.05;7.32;;;16.20;99.90;;;;;;5119502;28;20039;-69
2022/07/04 05:00:39;;;;;;;9.80;7.18;;;16.30;99.90;;;;;;5119083;28;20135;-69
2022/07/04 05:03:04;;;;;;;12.50;7.05;;;16.30;99.90;;;;;;5119170;28;20051;-69
2022/07/04 05:05:30;;;;;;;13.05;6.43;;;16.40;99.90;;;;;;5118783;28;20118;-69
2022/07/04 05:07:55;;;;;;;11.07;6.65;;;16.50;99.90;;;;;;5119027;28;20047;-69
2022/07/04 05:10:21;;;;;;;13.05;7.00;;;16.50;99.90;;;;;;5119080;28;20144;-69
2022/07/04 05:12:47;;;;;;;9.60;7.10;;;16.60;99.90;;;;;;5119348;28;20096;-68
2022/07/04 05:15:12;;;;;;;12.68;6.80;;;16.60;99.90;;;;;;5117429;28;20042;-68
2022/07/04 05:17:38;;;;;;;15.68;7.68;;;16.70;99.90;;;;;;5119023;28;20478;-68
2022/07/04 05:20:04;;;;;;;9.98;7.07;;;16.70;99.90;;;;;;5119173;28;20043;-69
2022/07/04 05:22:29;;;;;;;9.45;6.97;;;16.80;99.90;;;;;;5117326;28;20038;-69
2022/07/04 05:24:55;;;;;;;11.25;6.80;;;17.00;99.90;;;;;;5117340;28;20507;-69
2022/07/04 05:27:20;;;;;;;8.25;6.25;;;17.00;99.90;;;;;;5119032;28;20040;-68
2022/07/04 05:29:46;;;;;;;9.32;6.60;;;17.10;99.90;;;;;;5118243;28;20067;-69
2022/07/04 05:32:12;;;;;;;10.80;6.15;;;17.10;99.90;;;;;;5117981;28;20121;-69
2022/07/04 05:34:37;;;;;;;13.15;6.40;;;17.20;99.90;;;;;;5117884;28;20039;-69
2022/07/04 05:37:03;;;;;;;10.30;6.10;;;17.30;99.90;;;;;;5117040;28;20039;-69
2022/07/04 05:39:29;;;;;;;11.23;6.80;;;17.40;99.90;;;;;;5117394;28;20047;-68
2022/07/04 05:41:55;;;;;;;10.60;6.22;;;17.40;99.90;;;;;;5117719;28;20509;-68
2022/07/04 05:44:21;;;;;;;10.43;5.85;;;17.40;99.90;;;;;;5117812;28;20053;-69
2022/07/04 05:46:46;;;;;;;10.25;6.65;;;17.60;99.90;;;;;;5117504;28;20048;-69
2022/07/04 05:49:12;;;;;;;9.48;6.22;;;17.60;99.90;;;;;;5120327;28;20091;-69
2022/07/04 05:51:37;;;;;;;11.27;6.28;;;17.70;99.90;;;;;;5116841;28;20057;-69
2022/07/04 05:54:03;;;;;;;9.35;6.05;;;17.70;99.90;;;;;;5116277;28;20066;-69
2022/07/04 05:56:28;;;;;;;9.48;5.40;;;17.90;99.90;;;;;;5115852;28;20095;-69
2022/07/04 05:58:54;;;;;;;10.23;6.20;;;18.00;99.90;;;;;;5115619;28;20118;-69
2022/07/04 06:01:20;;;;;;;10.40;5.85;;;18.20;99.90;;;;;;5115677;28;20059;-68
2022/07/04 06:03:46;;;;;;;9.85;5.75;;;18.30;99.90;;;;;;5113551;28;20040;-69
2022/07/04 06:06:11;;;;;;;12.82;6.03;;;18.30;99.90;;;;;;5115134;28;20036;-68
2022/07/04 06:08:37;;;;;;;11.30;5.50;;;18.40;99.90;;;;;;5114925;28;20503;-69
2022/07/04 06:11:03;;;;;;;8.95;5.18;;;18.50;99.90;;;;;;5114620;28;20083;-69
2022/07/04 06:13:28;;;;;;;12.15;5.03;;;18.50;99.90;;;;;;5113789;28;20032;-69
2022/07/04 06:15:54;;;;;;;6.63;5.15;;;18.60;99.90;;;;;;5114973;28;20034;-69
2022/07/04 06:18:20;;;;;;;11.25;5.20;;;18.70;99.90;;;;;;5113542;28;20043;-70
2022/07/04 06:20:45;;;;;;;9.13;5.47;;;18.60;99.90;;;;;;5114462;28;20508;-70
2022/07/04 06:23:11;;;;;;;8.82;5.78;;;18.60;99.90;;;;;;5111006;28;20047;-69
2022/07/04 06:25:37;;;;;;;8.25;4.80;;;18.60;99.90;;;;;;5110927;28;20038;-69
2022/07/04 06:28:03;;;;;;;7.90;5.13;;;18.70;99.90;;;;;;5109418;28;20051;-69
2022/07/04 06:30:28;;;;;;;10.10;5.07;;;18.70;99.90;;;;;;5109740;28;20043;-69
2022/07/04 06:32:56;;;;;;;10.40;4.93;;;18.70;99.90;;;;;;5110836;28;20028;-69
2022/07/04 06:35:45;;;;;;;8.35;4.90;;;18.90;99.90;;;;;;5110946;28;20046;-69
2022/07/04 06:38:13;;;;;;;10.23;4.95;;;19.00;99.90;;;;;;5111029;28;20367;-69
2022/07/04 06:40:39;;;;;;;12.15;5.43;;;19.10;99.90;;;;;;5110679;28;20071;-69
2022/07/04 06:43:05;;;;;;;10.18;4.60;;;19.10;99.90;;;;;;5109477;28;20132;-69
2022/07/04 06:45:31;;;;;;;9.13;4.18;;;19.30;99.90;;;;;;5111038;28;20042;-69
2022/07/04 06:47:57;;;;;;;11.43;4.70;;;19.40;99.90;;;;;;5109447;28;20043;-69
2022/07/04 06:50:23;;;;;;;10.07;5.18;;;19.30;99.90;;;;;;5110886;28;20070;-69
2022/07/04 06:52:48;;;;;;;8.82;4.22;;;19.20;99.90;;;;;;5110393;28;20040;-69
2022/07/04 06:55:15;;;;;;;7.97;4.57;;;19.20;99.90;;;;;;5110486;28;20028;-69
2022/07/04 06:57:40;;;;;;;12.38;4.97;;;19.30;99.90;;;;;;5109332;28;20167;-69
2022/07/04 07:00:08;;;;;;;10.40;4.80;;;19.40;99.90;;;;;;5110697;28;20040;-69
2022/07/04 07:02:35;;;;;;;9.77;4.63;;;19.40;99.90;;;;;;5105206;28;20067;-68
2022/07/04 07:05:01;;;;;;;6.97;4.45;;;19.40;99.90;;;;;;5099551;28;20055;-69
2022/07/04 07:07:27;;;;;;;12.10;4.75;;;19.50;99.90;;;;;;5099064;28;20138;-68
2022/07/04 07:09:54;;;;;;;7.22;3.97;;;19.40;99.90;;;;;;5090052;28;20044;-69
2022/07/04 07:12:20;;;;;;;9.93;4.70;;;19.60;99.90;;;;;;5088559;28;20564;-68
2022/07/04 07:14:45;;;;;;;10.85;4.70;;;19.80;99.90;;;;;;5090259;28;20032;-68
2022/07/04 07:17:11;;;;;;;8.68;4.03;;;19.70;99.90;;;;;;5090120;28;20042;-68
2022/07/04 07:19:37;;;;;;;7.78;4.28;;;19.90;99.90;;;;;;5090124;28;20046;-69
2022/07/04 07:22:03;;;;;;;6.80;4.45;;;19.90;99.90;;;;;;5089961;28;20056;-69
2022/07/04 07:24:30;;;;;;;11.32;4.80;;;19.80;99.90;;;;;;5088039;28;20051;-69
2022/07/04 07:26:56;;;;;;;10.93;4.80;;;20.00;99.90;;;;;;5090173;28;20055;-69
2022/07/04 07:29:22;;;;;;;10.95;4.25;;;19.90;99.90;;;;;;5092061;28;20040;-69
2022/07/04 07:31:48;;;;;;;10.75;3.97;;;20.00;99.90;;;;;;5099240;28;20337;-69
2022/07/04 07:34:13;;;;;;;11.30;4.70;;;20.10;99.90;;;;;;5101021;28;20040;-69
2022/07/04 07:36:39;;;;;;;10.05;4.50;;;20.10;99.90;;;;;;5102774;28;20560;-69
2022/07/04 07:39:05;;;;;;;13.18;4.72;;;20.20;99.90;;;;;;5102788;28;20032;-69
2022/07/04 07:41:30;;;;;;;9.55;4.20;;;20.20;99.90;;;;;;5100688;28;20039;-69
2022/07/04 07:43:56;;;;;;;10.85;4.32;;;20.40;99.90;;;;;;5091891;28;20077;-69
2022/07/04 07:46:21;;;;;;;7.22;3.90;;;20.40;99.90;;;;;;5081941;28;20059;-69
2022/07/04 07:48:47;;;;;;;9.00;4.35;;;20.30;99.90;;;;;;5082421;28;20125;-68
2022/07/04 07:51:15;;;;;;;11.18;3.78;;;20.30;99.90;;;;;;5082766;28;20118;-67
2022/07/04 07:53:40;;;;;;;14.70;4.43;;;20.30;99.90;;;;;;5086890;28;20062;-67
2022/07/04 07:56:06;;;;;;;11.48;4.65;;;20.40;99.90;;;;;;5093318;28;20040;-67
2022/07/04 07:58:32;;;;;;;13.20;4.95;;;20.30;99.90;;;;;;5092608;28;20062;-67
2022/07/04 08:00:57;;;;;;;14.70;4.68;;;20.20;99.90;;;;;;5093504;28;20054;-67
2022/07/04 08:06:07;;;;;;;12.20;3.72;;;20.20;99.90;;;;;;5092361;28;20051;-67
2022/07/04 08:08:33;;;;;;;11.18;4.43;;;20.30;99.90;;;;;;5093145;28;20546;-67
2022/07/04 08:10:59;;;;;;;11.85;3.75;;;20.30;99.90;;;;;;5092996;28;20032;-68
2022/07/04 08:13:24;;;;;;;10.20;3.60;;;20.30;99.90;;;;;;5092994;28;20036;-69
2022/07/04 08:15:50;;;;;;;11.50;4.10;;;20.20;99.90;;;;;;5091656;28;20122;-68
2022/07/04 08:18:17;;;;;;;11.35;3.80;;;20.20;99.90;;;;;;5093114;28;20044;-68
2022/07/04 08:20:42;;;;;;;5.82;3.17;;;20.10;99.90;;;;;;5092984;28;20196;-68
2022/07/04 08:23:08;;;;;;;7.30;3.22;;;20.10;99.90;;;;;;5091277;28;20136;-68
2022/07/04 08:25:33;;;;;;;9.73;3.10;;;20.00;99.90;;;;;;5092715;28;20115;-68
2022/07/04 08:27:59;;;;;;;9.27;3.05;;;20.00;99.90;;;;;;5093014;28;20087;-68
2022/07/04 08:30:25;;;;;;;7.18;2.95;;;20.10;99.90;;;;;;5092918;28;20233;-68
2022/07/04 08:32:50;;;;;;;9.77;3.15;;;20.20;99.90;;;;;;5092509;28;20495;-68
2022/07/04 08:35:16;;;;;;;14.48;2.97;;;20.20;99.90;;;;;;5092822;28;20040;-68
2022/07/04 08:37:42;;;;;;;12.10;3.90;;;20.20;99.90;;;;;;5074780;28;20516;-68
2022/07/04 08:40:08;;;;;;;13.25;3.42;;;20.00;99.90;;;;;;5090862;28;20606;-68
2022/07/04 08:42:38;;;;;;;9.18;3.00;;;20.00;99.90;;;;;;5091072;28;20540;-68
2022/07/04 08:45:06;;;;;;;9.70;3.05;;;20.00;99.90;;;;;;5092654;28;20047;-68
2022/07/04 08:47:35;;;;;;;10.45;3.40;;;20.00;99.90;;;;;;5092642;28;20052;-68
2022/07/04 08:50:16;;;;;;;12.05;3.15;;;20.10;99.90;;;;;;5097687;28;20032;-68
2022/07/04 08:52:46;;;;;;;12.25;2.80;;;20.20;99.90;;;;;;5096796;28;20036;-68
2022/07/04 09:00:42;;;;;;;10.48;2.78;;;20.70;99.90;;;;;;5067949;28;20064;-68
2022/07/04 09:03:08;;;;;;;8.00;2.30;;;20.80;99.90;;;;;;5081709;28;20045;-68
2022/07/04 09:05:35;;;;;;;8.85;2.47;;;21.00;99.90;;;;;;5082319;28;20126;-69
2022/07/04 09:08:02;;;;;;;6.18;2.28;;;21.00;99.90;;;;;;5068532;28;20028;-69
2022/07/04 09:10:28;;;;;;;6.57;2.10;;;21.20;99.90;;;;;;5085728;28;20032;-67
2022/07/04 09:12:53;;;;;;;4.05;1.67;;;21.20;99.90;;;;;;5087309;28;20523;-68
2022/07/04 09:15:19;;;;;;;7.47;1.90;;;21.10;99.90;;;;;;5090336;28;20031;-68
2022/07/04 09:17:46;;;;;;;3.80;1.80;;;21.00;99.90;;;;;;5102099;28;20043;-68
2022/07/04 09:20:20;;;;;;;9.73;2.13;;;20.90;99.90;;;;;;5082379;28;20032;-68
2022/07/04 09:22:47;;;;;;;6.72;1.67;;;21.00;99.90;;;;;;5076515;28;20408;-68
2022/07/04 09:25:16;;;;;;;8.82;1.80;;;21.10;99.90;;;;;;5071304;28;20051;-68
2022/07/04 09:27:50;;;;;;;3.90;1.40;;;20.90;99.90;;;;;;5071586;28;20124;-69
2022/07/04 09:30:18;;;;;;;7.15;1.48;;;21.00;99.90;;;;;;5061298;28;20093;-69
2022/07/04 09:32:53;;;;;;;5.22;1.23;;;20.90;99.90;;;;;;5098077;28;20059;-69
2022/07/04 09:35:23;;;;;;;6.85;1.70;;;21.20;99.90;;;;;;5071181;28;20125;-69
2022/07/04 09:37:54;;;;;;;8.45;1.77;;;21.30;99.90;;;;;;5072922;28;20068;-69
2022/07/04 09:40:27;;;;;;;10.77;1.60;;;21.60;99.90;;;;;;5073000;28;20042;-69
2022/07/04 09:42:54;;;;;;;7.35;1.65;;;21.60;99.90;;;;;;5072724;28;20032;-69
2022/07/04 09:45:24;;;;;;;7.45;1.58;;;21.70;99.90;;;;;;5072238;28;20048;-69
2022/07/04 09:47:55;;;;;;;9.43;1.73;;;21.60;99.90;;;;;;5071248;28;20051;-69
2022/07/04 09:50:22;;;;;;;11.75;1.40;;;21.50;99.90;;;;;;5070787;28;20045;-69
2022/07/04 09:52:53;;;;;;;5.05;1.23;;;21.40;99.90;;;;;;5070850;28;20094;-69
2022/07/04 09:55:30;;;;;;;3.88;1.40;;;21.30;99.90;;;;;;5071885;28;20054;-69
2022/07/04 09:57:58;;;;;;;4.47;1.30;;;21.30;99.90;;;;;;5072321;28;20451;-69
2022/07/04 10:00:38;;;;;;;6.10;1.42;;;21.20;99.90;;;;;;5072217;28;20050;-69
2022/07/04 10:03:25;;;;;;;5.35;1.45;;;21.20;99.90;;;;;;5071583;28;20039;-68
2022/07/04 10:06:05;;;;;;;5.30;1.40;;;21.30;99.90;;;;;;5070890;28;20400;-68
2022/07/04 10:08:31;;;;;;;5.18;1.65;;;21.40;99.90;;;;;;5103308;28;20056;-68
2022/07/04 10:10:58;;;;;;;4.28;1.20;;;21.50;99.90;;;;;;5070639;28;20052;-67
2022/07/04 10:13:24;;;;;;;6.28;1.52;;;21.50;99.90;;;;;;5070597;28;20069;-67
2022/07/04 10:15:51;;;;;;;2.53;1.35;;;21.50;99.90;;;;;;5070674;28;20120;-68
2022/07/04 10:18:21;;;;;;;4.55;1.60;;;21.50;99.90;;;;;;5069179;28;20040;-68
2022/07/04 10:20:49;;;;;;;5.40;1.40;;;21.50;99.90;;;;;;5070755;28;20504;-68
2022/07/04 10:23:15;;;;;;;3.80;1.15;;;21.60;99.90;;;;;;5069273;28;20453;-68
2022/07/04 10:25:42;;;;;;;2.67;1.10;;;21.60;99.90;;;;;;5070762;28;20049;-68
2022/07/04 10:28:08;;;;;;;3.55;1.15;;;21.70;99.90;;;;;;5069924;28;20040;-68
2022/07/04 10:30:36;;;;;;;2.22;1.13;;;21.80;99.90;;;;;;5070220;28;20083;-68
2022/07/04 10:33:04;;;;;;;4.70;1.60;;;21.90;99.90;;;;;;5070448;28;20068;-68
2022/07/04 10:36:02;;;;;;;3.28;1.17;;;22.10;99.90;;;;;;5070430;28;20072;-68
2022/07/04 10:38:31;;;;;;;6.70;1.15;;;22.20;99.90;;;;;;5070097;28;20469;-68
2022/07/04 10:41:08;;;;;;;2.58;1.42;;;22.20;99.90;;;;;;5069234;28;20404;-68
2022/07/04 10:43:43;;;;;;;2.55;0.95;;;22.20;99.90;;;;;;5070269;28;20569;-68
2022/07/04 10:46:14;;;;;;;4.63;1.25;;;22.30;99.90;;;;;;5068930;28;20048;-68
2022/07/04 10:49:17;;;;;;;4.97;1.95;;;22.40;99.90;;;;;;5068939;28;20139;-68
2022/07/04 10:51:49;;;;;;;3.63;1.27;;;22.60;99.90;;;;;;5069128;28;20055;-68
2022/07/04 10:54:19;;;;;;;2.75;1.13;;;22.60;99.90;;;;;;5102380;28;20036;-68
2022/07/04 10:57:07;;;;;;;3.90;0.90;;;22.50;99.90;;;;;;5068840;28;20090;-68
2022/07/04 10:59:33;;;;;;;5.38;1.30;;;22.50;99.90;;;;;;5069367;28;20113;-68
2022/07/04 11:02:08;;;;;;;3.42;1.25;;;22.60;99.90;;;;;;5070652;28;20123;-68
2022/07/04 11:04:54;;;;;;;3.25;1.08;;;22.50;99.90;;;;;;5072946;28;20527;-68
2022/07/04 11:07:35;;;;;;;4.53;1.15;;;22.40;99.90;;;;;;5074821;28;20033;-68
2022/07/04 11:10:21;;;;;;;2.83;0.90;;;22.30;99.90;;;;;;5073202;28;20080;-68
2022/07/04 11:12:55;;;;;;;2.75;0.90;;;22.20;99.90;;;;;;5072915;28;20040;-68
2022/07/04 11:15:27;;;;;;;1.95;1.20;;;22.30;99.90;;;;;;5074593;28;20036;-69
2022/07/04 11:17:57;;;;;;;1.83;0.90;;;22.40;99.90;;;;;;5074407;28;20036;-68
2022/07/04 11:20:24;;;;;;;2.03;1.10;;;22.40;99.90;;;;;;5074018;28;20084;-69
2022/07/04 11:22:50;;;;;;;3.47;1.20;;;22.50;99.90;;;;;;5073826;28;20116;-69
2022/07/04 11:25:16;;;;;;;5.90;1.10;;;22.60;99.90;;;;;;5074284;28;20146;-69
2022/07/04 11:27:42;;;;;;;5.05;1.20;;;22.70;99.90;;;;;;5074276;28;20044;-69
2022/07/04 11:30:09;;;;;;;5.43;1.45;;;22.80;99.90;;;;;;5074363;28;20509;-67
2022/07/04 11:32:36;;;;;;;5.57;1.10;;;22.80;99.90;;;;;;5072444;28;20621;-67
2022/07/04 11:35:04;;;;;;;1.15;0.90;;;22.80;99.90;;;;;;5072010;28;20493;-68
2022/07/04 11:37:30;;;;;;;2.03;1.00;;;22.80;99.90;;;;;;5073409;28;20094;-69
2022/07/04 11:45:48;;;;;;;1.88;1.10;;;23.10;99.90;;;;;;5105813;28;20048;-68
2022/07/04 11:48:21;;;;;;;3.35;0.93;;;23.10;99.90;;;;;;5071867;28;20044;-68
2022/07/04 11:50:46;;;;;;;4.65;1.20;;;23.10;99.90;;;;;;5072086;28;20452;-68
2022/07/04 11:53:12;;;;;;;3.53;1.10;;;23.10;99.90;;;;;;5072878;28;20119;-68
2022/07/04 11:55:37;;;;;;;3.70;1.25;;;23.10;99.90;;;;;;5073355;28;20447;-68
2022/07/04 11:58:03;;;;;;;1.75;1.00;;;23.30;99.90;;;;;;5071825;28;20553;-68
2022/07/04 12:00:32;;;;;;;2.58;0.93;;;23.30;99.90;;;;;;5073274;28;20032;-68
2022/07/04 12:03:01;;;;;;;5.75;0.90;;;23.50;99.90;;;;;;5073899;28;20033;-68
2022/07/04 12:05:27;;;;;;;2.08;0.75;;;23.40;99.90;;;;;;5073170;28;20438;-67
2022/07/04 12:07:52;;;;;;;3.55;1.20;;;23.40;99.90;;;;;;5072982;28;20043;-67
2022/07/04 12:10:23;;;;;;;3.70;1.02;;;23.40;99.90;;;;;;5073327;28;20124;-67
2022/07/04 12:12:59;;;;;;;2.50;1.00;;;23.30;99.90;;;;;;5072937;28;20045;-67
2022/07/04 12:15:35;;;;;;;1.27;1.02;;;23.40;99.90;;;;;;5071748;28;20044;-68
2022/07/04 12:18:01;;;;;;;5.20;1.25;;;23.60;99.90;;;;;;5072768;28;20040;-68
2022/07/04 12:20:26;;;;;;;2.38;1.02;;;23.50;99.90;;;;;;5072516;28;20039;-68
2022/07/04 12:22:59;;;;;;;2.05;1.33;;;23.50;99.90;;;;;;5072728;28;20119;-68
2022/07/04 12:25:26;;;;;;;2.30;0.95;;;23.50;99.90;;;;;;5072646;28;20528;-68
2022/07/04 12:28:00;;;;;;;2.50;1.05;;;23.50;99.90;;;;;;5072799;28;20044;-68
2022/07/04 12:30:27;;;;;;;3.22;0.90;;;23.50;99.90;;;;;;5072766;28;20041;-68
2022/07/04 12:32:57;;;;;;;2.83;1.10;;;23.50;99.90;;;;;;5072228;28;20036;-68
2022/07/04 12:35:36;;;;;;;2.70;0.82;;;23.50;99.90;;;;;;5072822;28;20079;-68
2022/07/04 12:38:10;;;;;;;2.65;1.00;;;23.50;99.50;;;;;;5072502;28;20051;-69
2022/07/04 12:40:37;;;;;;;2.00;1.00;;;23.50;99.90;;;;;;5072789;28;20102;-67
2022/07/04 12:43:03;;;;;;;2.22;1.00;;;23.50;99.90;;;;;;5072177;28;20497;-67
2022/07/04 12:45:47;;;;;;;2.92;1.00;;;23.30;99.90;;;;;;5072568;28;20419;-67
2022/07/04 12:48:22;;;;;;;3.38;1.17;;;23.50;99.70;;;;;;5072418;28;20045;-67
2022/07/04 12:50:48;;;;;;;4.00;1.00;;;23.50;99.90;;;;;;5072395;28;20447;-67
2022/07/04 12:53:14;;;;;;;2.08;0.90;;;23.40;99.90;;;;;;5072026;28;20041;-67
2022/07/04 12:55:44;;;;;;;3.28;1.05;;;23.50;99.90;;;;;;5072385;28;20042;-67
2022/07/04 12:58:10;;;;;;;1.77;0.82;;;23.50;99.90;;;;;;5072353;28;20043;-67
2022/07/04 13:00:36;;;;;;;1.92;1.00;;;23.70;99.90;;;;;;5072245;28;20032;-67
2022/07/04 13:03:02;;;;;;;2.95;1.08;;;23.60;99.90;;;;;;5104286;28;20049;-67
2022/07/04 13:05:28;;;;;;;4.93;0.95;;;23.60;99.90;;;;;;5071948;28;20378;-67